Time;durP1;ratioP1;P1;durP2;ratioP2;P2;SDS_P1;SDS_P2;PMS_P1;PMS_P2;Temp;Humidity;BMP_temperature;BMP_pressure;BME280_temperature;BME280_humidity;BME280_pressure;Samples;Min_cycle;Max_cycle;Signal;HPM_P1;HPM_P2
2023/04/29 06:38:40;;;;;;;4.40;3.73;;;21.70;48.00;;;;;;5102026;27;20553;-78
2023/04/29 06:41:06;;;;;;;4.77;3.60;;;19.60;47.10;;;;;;5098683;28;20249;-77
2023/04/29 06:43:32;;;;;;;4.37;3.97;;;18.80;48.60;;;;;;5100822;28;20651;-78
2023/04/29 06:45:57;;;;;;;5.00;3.67;;;18.50;49.20;;;;;;5103239;28;20176;-75
2023/04/29 06:48:23;;;;;;;4.87;3.90;;;18.40;49.60;;;;;;5103554;28;20187;-76
2023/04/29 06:50:54;;;;;;;4.83;3.60;;;18.30;49.90;;;;;;5102371;28;20211;-75
2023/04/29 06:53:20;;;;;;;5.67;3.70;;;18.30;50.10;;;;;;5099992;28;20313;-76
2023/04/29 06:55:46;;;;;;;4.40;4.00;;;18.30;50.20;;;;;;5103978;28;20529;-76
2023/04/29 06:58:13;;;;;;;6.03;3.40;;;18.20;50.20;;;;;;5100641;28;20207;-77
2023/04/29 07:00:39;;;;;;;6.80;3.93;;;18.20;50.30;;;;;;5099841;28;20191;-76
2023/04/29 07:03:05;;;;;;;4.17;3.73;;;18.20;50.30;;;;;;5104586;28;20176;-76
2023/04/29 07:05:31;;;;;;;4.97;3.70;;;18.20;50.20;;;;;;5105758;28;20254;-77
2023/04/29 07:07:56;;;;;;;4.53;4.03;;;18.30;50.10;;;;;;5103582;28;20198;-76
2023/04/29 07:10:22;;;;;;;3.90;3.30;;;18.30;50.00;;;;;;5104717;28;20168;-78
2023/04/29 07:12:48;;;;;;;4.20;3.80;;;18.30;49.90;;;;;;5102446;28;20187;-76
2023/04/29 07:15:13;;;;;;;5.27;3.77;;;18.30;50.00;;;;;;5104136;28;20243;-74
2023/04/29 07:17:39;;;;;;;6.17;4.00;;;18.30;49.80;;;;;;5103519;28;20196;-80
2023/04/29 07:20:06;;;;;;;7.27;3.70;;;18.30;49.90;;;;;;5102783;28;20628;-78
2023/04/29 07:22:32;;;;;;;13.03;3.60;;;18.30;49.90;;;;;;5100786;28;20191;-77
2023/04/29 07:24:58;;;;;;;4.60;3.70;;;18.30;49.90;;;;;;5103741;28;20186;-79
2023/04/29 07:27:24;;;;;;;6.93;3.57;;;18.30;49.90;;;;;;5103340;28;20192;-79
2023/04/29 07:29:49;;;;;;;6.00;3.87;;;18.20;49.80;;;;;;5102565;28;20180;-78
2023/04/29 07:32:15;;;;;;;4.07;3.07;;;18.30;49.80;;;;;;5103017;28;20584;-78
2023/04/29 07:34:41;;;;;;;4.70;3.40;;;18.30;49.80;;;;;;5103804;28;20168;-78
2023/04/29 07:37:07;;;;;;;6.43;3.27;;;18.30;49.80;;;;;;5101576;28;20230;-78
2023/04/29 07:39:34;;;;;;;4.20;3.10;;;18.30;49.60;;;;;;5100587;28;20271;-79
2023/04/29 07:42:00;;;;;;;4.00;3.43;;;18.30;49.70;;;;;;5103071;28;20187;-78
2023/04/29 07:44:25;;;;;;;6.00;3.40;;;18.20;49.40;;;;;;5100075;28;20532;-78
2023/04/29 07:46:51;;;;;;;77.40;14.43;;;18.30;49.50;;;;;;5102062;28;20685;-77
2023/04/29 07:49:16;;;;;;;9.17;3.90;;;18.30;49.50;;;;;;5094115;28;20189;-76
2023/04/29 07:51:42;;;;;;;8.70;4.17;;;18.40;49.40;;;;;;5089468;28;20624;-78
2023/04/29 07:54:08;;;;;;;9.37;4.23;;;18.40;49.20;;;;;;5090442;28;20547;-78
2023/04/29 07:56:34;;;;;;;8.47;4.20;;;18.30;49.20;;;;;;5091644;28;20208;-78
2023/04/29 07:59:00;;;;;;;7.20;4.07;;;18.30;49.10;;;;;;5089483;28;20176;-78
2023/04/29 08:01:27;;;;;;;8.37;3.70;;;18.30;49.70;;;;;;5088291;28;20210;-78
2023/04/29 08:03:53;;;;;;;7.83;4.10;;;18.30;49.20;;;;;;5088122;28;20185;-78
2023/04/29 08:06:21;;;;;;;8.03;3.50;;;18.30;49.30;;;;;;5083808;28;20189;-79
2023/04/29 08:08:47;;;;;;;6.53;3.83;;;18.30;49.30;;;;;;5082412;28;20176;-79
2023/04/29 08:11:20;;;;;;;8.20;3.50;;;18.30;49.40;;;;;;5086177;28;20179;-78
2023/04/29 08:13:46;;;;;;;9.97;3.90;;;18.30;49.30;;;;;;5086977;28;20169;-78
2023/04/29 08:16:12;;;;;;;5.10;3.70;;;18.40;49.40;;;;;;5086458;28;20247;-78
2023/04/29 08:18:38;;;;;;;6.93;3.63;;;18.40;49.40;;;;;;5084668;28;20229;-78
2023/04/29 08:21:04;;;;;;;5.67;3.40;;;18.40;49.40;;;;;;5086335;28;20238;-78
2023/04/29 08:23:30;;;;;;;7.10;3.70;;;18.40;49.40;;;;;;5085604;28;20641;-78
2023/04/29 08:25:56;;;;;;;4.60;3.30;;;18.40;49.40;;;;;;5087656;28;20179;-78
2023/04/29 08:28:22;;;;;;;4.00;3.20;;;18.40;49.40;;;;;;5084479;28;20185;-78
2023/04/29 08:30:47;;;;;;;5.80;3.40;;;18.40;49.50;;;;;;5086228;28;20181;-78
2023/04/29 08:33:13;;;;;;;4.97;3.47;;;18.40;49.50;;;;;;5087280;28;20185;-78
2023/04/29 08:35:40;;;;;;;3.93;3.07;;;18.40;49.40;;;;;;5083229;28;20184;-78
2023/04/29 08:38:08;;;;;;;6.33;3.43;;;18.40;49.40;;;;;;5084491;28;20608;-79
2023/04/29 08:40:47;;;;;;;4.47;3.47;;;18.40;49.30;;;;;;5085179;28;20233;-78
2023/04/29 08:43:16;;;;;;;5.53;3.10;;;18.40;49.40;;;;;;5085191;28;20229;-79
2023/04/29 08:45:42;;;;;;;6.10;3.60;;;18.40;49.30;;;;;;5086443;28;20283;-81
2023/04/29 08:48:09;;;;;;;8.07;3.77;;;18.60;49.40;;;;;;5087654;28;20253;-78
2023/04/29 08:50:40;;;;;;;6.13;3.17;;;18.60;49.00;;;;;;5089308;28;20195;-79
2023/04/29 08:53:10;;;;;;;11.30;3.10;;;18.60;49.10;;;;;;5090694;28;20196;-80
2023/04/29 08:55:40;;;;;;;4.13;2.90;;;18.50;49.10;;;;;;5088212;28;20633;-79
2023/04/29 08:58:07;;;;;;;6.37;3.23;;;18.50;49.00;;;;;;5086842;28;20327;-80
2023/04/29 09:00:33;;;;;;;5.67;3.40;;;18.60;49.00;;;;;;5086640;28;20271;-80
2023/04/29 09:03:04;;;;;;;6.93;4.00;;;18.50;49.00;;;;;;5088607;28;20184;-80
2023/04/29 09:05:30;;;;;;;6.83;3.00;;;18.50;49.00;;;;;;5085782;28;20181;-81
2023/04/29 09:07:58;;;;;;;5.37;2.80;;;18.50;48.90;;;;;;5087971;28;20198;-79
2023/04/29 09:10:25;;;;;;;6.47;3.40;;;18.50;48.90;;;;;;5088179;28;20195;-81
2023/04/29 09:12:50;;;;;;;4.60;3.30;;;18.50;48.90;;;;;;5088661;28;20188;-80
2023/04/29 09:15:16;;;;;;;7.50;3.37;;;18.50;48.80;;;;;;5090055;28;20215;-81
2023/04/29 09:17:47;;;;;;;4.70;2.93;;;18.50;48.90;;;;;;5088901;28;20636;-81
2023/04/29 09:20:32;;;;;;;4.67;3.50;;;18.50;48.80;;;;;;5086583;28;20176;-80
2023/04/29 09:23:03;;;;;;;6.47;3.40;;;18.50;48.70;;;;;;5089656;28;20550;-81
2023/04/29 09:25:30;;;;;;;5.33;3.50;;;18.50;48.80;;;;;;5087657;28;20188;-82
2023/04/29 09:27:55;;;;;;;3.67;3.20;;;18.50;48.70;;;;;;5087989;28;21213;-80
2023/04/29 09:30:22;;;;;;;5.17;3.13;;;18.50;48.60;;;;;;5087715;28;20275;-81
2023/04/29 09:33:08;;;;;;;4.70;3.50;;;18.50;48.80;;;;;;5087566;28;20271;-80
2023/04/29 09:35:33;;;;;;;5.70;3.37;;;18.50;48.80;;;;;;5086983;28;20622;-82
2023/04/29 09:38:13;;;;;;;4.87;3.07;;;18.50;48.80;;;;;;5088823;28;20314;-82
2023/04/29 09:40:40;;;;;;;5.10;3.27;;;18.50;48.70;;;;;;5088000;28;20180;-82
2023/04/29 09:43:14;;;;;;;6.67;3.40;;;18.50;48.70;;;;;;5087726;28;20192;-81
2023/04/29 09:45:49;;;;;;;7.17;3.23;;;18.50;48.60;;;;;;5085291;28;20184;-82
2023/04/29 09:48:15;;;;;;;5.87;3.40;;;18.50;48.60;;;;;;5086194;28;20330;-81
2023/04/29 09:50:42;;;;;;;5.00;3.13;;;18.50;48.60;;;;;;5086017;28;20636;-81
2023/04/29 09:53:10;;;;;;;4.20;3.20;;;18.50;48.50;;;;;;5088193;28;20586;-82
2023/04/29 09:55:51;;;;;;;6.13;3.00;;;18.50;48.60;;;;;;5086947;28;20188;-82
2023/04/29 09:58:32;;;;;;;5.30;3.20;;;18.50;48.40;;;;;;5085906;28;20208;-82
2023/04/29 10:01:01;;;;;;;5.13;3.47;;;18.50;48.40;;;;;;5085735;28;20192;-82
2023/04/29 10:03:41;;;;;;;6.33;3.17;;;18.50;48.40;;;;;;5087442;28;20187;-83
2023/04/29 10:06:07;;;;;;;4.27;2.97;;;18.50;48.50;;;;;;5088744;28;20264;-81
2023/04/29 10:08:34;;;;;;;4.67;2.97;;;18.50;48.50;;;;;;5085458;28;20609;-80
2023/04/29 10:11:04;;;;;;;5.23;3.30;;;18.50;48.50;;;;;;5088249;28;20235;-81
2023/04/29 10:13:33;;;;;;;8.43;3.27;;;18.60;48.70;;;;;;5086466;28;20191;-80
2023/04/29 10:16:07;;;;;;;14.77;3.70;;;18.60;48.80;;;;;;5088091;28;20184;-80
2023/04/29 10:18:39;;;;;;;10.03;3.70;;;18.60;49.00;;;;;;5085829;28;20231;-81
2023/04/29 10:21:08;;;;;;;8.13;3.77;;;18.60;49.10;;;;;;5086928;28;20279;-80
2023/04/29 10:23:35;;;;;;;5.47;3.20;;;18.60;49.10;;;;;;5086016;28;20247;-80
2023/04/29 10:26:02;;;;;;;7.90;3.60;;;18.60;48.80;;;;;;5086571;28;20640;-80
2023/04/29 10:28:31;;;;;;;6.17;3.57;;;18.50;48.80;;;;;;5084512;28;20188;-80
2023/04/29 10:31:03;;;;;;;6.33;3.87;;;18.50;48.80;;;;;;5087219;28;20645;-80
2023/04/29 10:33:34;;;;;;;8.03;3.27;;;18.50;49.30;;;;;;5085169;28;20191;-80
2023/04/29 10:36:01;;;;;;;6.93;3.67;;;18.50;48.70;;;;;;5086573;28;20220;-81
2023/04/29 10:38:41;;;;;;;8.07;3.27;;;18.50;48.70;;;;;;5086783;28;20219;-80
2023/04/29 10:41:24;;;;;;;8.07;3.67;;;18.50;48.70;;;;;;5087849;28;20177;-80
2023/04/29 10:43:54;;;;;;;6.93;3.63;;;18.50;48.50;;;;;;5087340;28;20533;-80
2023/04/29 10:46:22;;;;;;;9.17;3.90;;;18.50;48.50;;;;;;5085967;28;20226;-81
2023/04/29 10:48:51;;;;;;;6.40;3.90;;;18.50;48.40;;;;;;5085680;28;20207;-82
2023/04/29 10:51:30;;;;;;;7.43;3.80;;;18.50;48.30;;;;;;5086979;28;20275;-83
2023/04/29 10:54:02;;;;;;;9.53;3.63;;;18.60;48.20;;;;;;5088219;28;20184;-83
2023/04/29 10:56:41;;;;;;;10.03;3.70;;;18.60;48.20;;;;;;5087015;28;20234;-77
2023/04/29 10:59:12;;;;;;;14.40;3.53;;;18.60;48.20;;;;;;5088641;28;20245;-80
2023/04/29 11:01:45;;;;;;;7.43;4.23;;;18.60;48.20;;;;;;5085881;28;20181;-80
2023/04/29 11:04:11;;;;;;;6.77;3.50;;;18.60;48.40;;;;;;5086158;28;20708;-82
2023/04/29 11:06:40;;;;;;;7.77;3.60;;;18.60;48.50;;;;;;5087040;28;20206;-79
2023/04/29 11:09:09;;;;;;;7.70;3.60;;;18.60;48.60;;;;;;5087234;28;20272;-80
2023/04/29 11:11:59;;;;;;;6.90;3.60;;;18.60;48.60;;;;;;5086072;28;20173;-81
2023/04/29 11:14:42;;;;;;;6.20;4.20;;;18.60;48.80;;;;;;5085694;28;20177;-79
2023/04/29 11:17:15;;;;;;;6.50;3.87;;;18.60;48.70;;;;;;5083914;28;20219;-79
2023/04/29 11:19:50;;;;;;;5.47;3.83;;;18.60;48.70;;;;;;5079803;28;20257;-79
2023/04/29 11:22:19;;;;;;;7.50;4.20;;;18.60;48.70;;;;;;5084907;28;20218;-79
2023/04/29 11:24:55;;;;;;;6.37;3.57;;;18.60;48.80;;;;;;5084291;28;20203;-79
2023/04/29 11:27:26;;;;;;;6.17;4.00;;;18.60;48.60;;;;;;5085400;28;20224;-79
2023/04/29 11:29:57;;;;;;;6.80;3.90;;;18.60;48.60;;;;;;5087531;28;20247;-79
2023/04/29 11:32:34;;;;;;;6.03;3.70;;;18.60;48.60;;;;;;5088666;28;20212;-79
2023/04/29 11:35:07;;;;;;;6.20;3.73;;;18.60;48.50;;;;;;5089046;28;20172;-79
2023/04/29 11:37:34;;;;;;;8.00;3.70;;;18.60;48.50;;;;;;5086171;28;20263;-79
2023/04/29 11:40:02;;;;;;;5.93;3.87;;;18.60;48.40;;;;;;5088777;28;20211;-79
2023/04/29 11:42:28;;;;;;;10.20;3.90;;;18.60;48.40;;;;;;5086016;28;20238;-79
2023/04/29 11:44:59;;;;;;;5.67;3.43;;;18.60;48.40;;;;;;5086532;28;20633;-79
2023/04/29 11:47:29;;;;;;;5.17;3.23;;;18.60;48.30;;;;;;5087161;28;20177;-79
2023/04/29 11:50:03;;;;;;;7.90;3.50;;;18.60;48.30;;;;;;5088983;28;20211;-79
2023/04/29 11:52:28;;;;;;;5.83;3.50;;;18.60;48.20;;;;;;5084865;28;20613;-79
2023/04/29 11:54:56;;;;;;;6.00;3.90;;;18.60;48.30;;;;;;5087149;28;20186;-79
2023/04/29 11:57:22;;;;;;;6.17;3.60;;;18.60;48.20;;;;;;5089330;28;20212;-79
2023/04/29 11:59:47;;;;;;;4.37;3.37;;;18.60;48.20;;;;;;5088140;28;20192;-79
2023/04/29 12:02:13;;;;;;;6.87;3.43;;;18.60;48.20;;;;;;5090230;28;20555;-79
2023/04/29 12:04:45;;;;;;;9.00;3.73;;;18.60;48.20;;;;;;5086033;28;20637;-79
2023/04/29 12:07:15;;;;;;;3.70;3.00;;;18.60;48.10;;;;;;5086769;28;20242;-79
2023/04/29 12:09:44;;;;;;;6.27;3.57;;;18.60;48.10;;;;;;5086319;28;20198;-79
2023/04/29 12:12:11;;;;;;;6.43;3.40;;;18.60;48.10;;;;;;5086608;28;20192;-79
2023/04/29 12:14:37;;;;;;;5.10;2.80;;;18.60;48.10;;;;;;5083531;28;20181;-79
2023/04/29 12:17:04;;;;;;;5.63;3.17;;;18.60;48.00;;;;;;5097277;28;20222;-79
2023/04/29 12:19:30;;;;;;;5.00;2.60;;;18.60;48.10;;;;;;5084398;28;20657;-79
2023/04/29 12:21:59;;;;;;;4.87;3.70;;;18.60;48.00;;;;;;5090005;28;20588;-79
2023/04/29 12:24:25;;;;;;;4.87;2.80;;;18.60;48.10;;;;;;5088089;28;20180;-79
2023/04/29 12:26:52;;;;;;;4.77;3.23;;;18.60;48.00;;;;;;5086118;28;20187;-79
2023/04/29 12:29:21;;;;;;;4.40;2.97;;;18.60;48.10;;;;;;5088216;28;20225;-80
2023/04/29 12:31:47;;;;;;;4.20;3.10;;;18.60;48.00;;;;;;5089147;28;20544;-81
2023/04/29 12:34:12;;;;;;;6.20;3.27;;;18.70;48.10;;;;;;5089488;28;20267;-81
2023/04/29 12:36:41;;;;;;;9.17;3.23;;;18.60;48.10;;;;;;5085949;28;20188;-82
2023/04/29 12:39:09;;;;;;;6.03;3.17;;;18.70;48.10;;;;;;5088111;28;20189;-82
2023/04/29 12:41:39;;;;;;;9.20;3.23;;;18.60;48.20;;;;;;5085966;28;20223;-82
2023/04/29 12:44:06;;;;;;;4.83;2.70;;;18.60;48.20;;;;;;5083784;28;20205;-81
2023/04/29 12:46:39;;;;;;;6.90;3.30;;;18.60;48.30;;;;;;5079241;28;20183;-82
2023/04/29 12:49:06;;;;;;;6.20;3.13;;;18.60;48.40;;;;;;5081679;28;20549;-81
2023/04/29 12:51:33;;;;;;;7.50;3.03;;;18.60;48.30;;;;;;5079857;28;20184;-83
2023/04/29 12:54:03;;;;;;;6.33;3.60;;;18.60;48.30;;;;;;5079022;28;20921;-83
2023/04/29 12:56:30;;;;;;;7.03;3.73;;;18.60;48.40;;;;;;5087644;28;20389;-84
2023/04/29 12:58:56;;;;;;;8.87;3.10;;;18.60;48.60;;;;;;5085355;28;20524;-83
2023/04/29 13:01:22;;;;;;;3.33;3.03;;;18.60;48.70;;;;;;5087895;28;20189;-81
2023/04/29 13:03:48;;;;;;;4.43;3.60;;;18.60;48.90;;;;;;5086225;28;20682;-83
2023/04/29 13:06:15;;;;;;;4.60;3.40;;;18.60;49.40;;;;;;5087681;28;20184;-83
2023/04/29 13:08:41;;;;;;;5.67;3.70;;;18.60;49.70;;;;;;5088923;28;20577;-80
2023/04/29 13:11:07;;;;;;;4.87;3.87;;;18.60;50.20;;;;;;5088472;28;20176;-82
2023/04/29 13:13:33;;;;;;;5.47;4.03;;;18.70;50.40;;;;;;5085682;28;20212;-83
2023/04/29 13:15:59;;;;;;;4.27;3.80;;;18.70;50.50;;;;;;5086216;28;20184;-83
2023/04/29 13:18:24;;;;;;;4.27;3.80;;;18.70;51.00;;;;;;5086998;28;20211;-81
2023/04/29 13:20:50;;;;;;;6.07;4.20;;;18.70;51.40;;;;;;5087376;28;20194;-79
2023/04/29 13:23:16;;;;;;;6.93;4.10;;;18.60;51.90;;;;;;5089090;28;20189;-80
2023/04/29 13:25:41;;;;;;;4.87;3.80;;;18.60;52.20;;;;;;5087462;28;20275;-83
2023/04/29 13:28:07;;;;;;;5.00;3.93;;;18.60;52.50;;;;;;5088172;28;20189;-82
2023/04/29 13:30:33;;;;;;;5.30;3.47;;;18.70;52.50;;;;;;5084927;28;20184;-82
2023/04/29 13:32:59;;;;;;;6.13;4.37;;;18.70;52.40;;;;;;5087032;28;21483;-81
2023/04/29 13:35:24;;;;;;;5.20;4.10;;;18.60;52.60;;;;;;5088453;28;20173;-83
2023/04/29 13:37:51;;;;;;;4.37;3.90;;;18.70;52.60;;;;;;5084935;28;20304;-83
2023/04/29 13:40:17;;;;;;;9.10;3.83;;;18.70;52.60;;;;;;5086768;28;20208;-83
2023/04/29 13:42:43;;;;;;;4.77;4.23;;;18.70;52.70;;;;;;5086732;28;20579;-82
2023/04/29 13:45:09;;;;;;;6.90;4.17;;;18.70;53.00;;;;;;5086781;28;20183;-81
2023/04/29 13:47:35;;;;;;;5.47;4.53;;;18.70;53.00;;;;;;5089086;28;20184;-81
2023/04/29 13:50:01;;;;;;;4.80;3.80;;;18.70;53.40;;;;;;5085689;28;20185;-82
2023/04/29 13:52:29;;;;;;;6.20;4.60;;;18.70;53.40;;;;;;5081942;28;20187;-83
2023/04/29 13:54:55;;;;;;;6.00;4.40;;;18.70;53.50;;;;;;5091021;28;20191;-82
2023/04/29 13:57:20;;;;;;;6.13;4.10;;;18.70;53.60;;;;;;5082606;28;20295;-83
2023/04/29 13:59:46;;;;;;;5.57;3.90;;;18.70;53.50;;;;;;5078614;28;20181;-83
2023/04/29 14:02:12;;;;;;;5.50;3.83;;;18.70;53.60;;;;;;5081855;28;20726;-83
2023/04/29 14:04:38;;;;;;;4.67;4.17;;;18.70;53.50;;;;;;5082553;28;20652;-81
2023/04/29 14:07:04;;;;;;;4.43;3.57;;;18.70;53.40;;;;;;5085320;28;20192;-82
2023/04/29 14:09:30;;;;;;;4.40;3.77;;;18.70;53.40;;;;;;5081054;28;20180;-81
2023/04/29 14:11:55;;;;;;;4.47;3.70;;;18.70;53.30;;;;;;5085769;28;20177;-82
2023/04/29 14:14:21;;;;;;;6.73;3.73;;;18.70;53.20;;;;;;5087701;28;20413;-82
2023/04/29 14:16:47;;;;;;;6.17;3.67;;;18.70;53.20;;;;;;5087913;28;20172;-81
2023/04/29 14:19:13;;;;;;;4.17;3.20;;;18.70;53.10;;;;;;5085903;28;20558;-82
2023/04/29 14:21:38;;;;;;;4.03;3.63;;;18.70;53.00;;;;;;5084499;28;20185;-83
2023/04/29 14:24:04;;;;;;;5.67;3.20;;;18.70;52.90;;;;;;5087018;28;20649;-81
2023/04/29 14:26:30;;;;;;;4.37;3.17;;;18.70;52.70;;;;;;5089672;28;20235;-83
2023/04/29 14:28:58;;;;;;;4.47;3.40;;;18.70;52.70;;;;;;5086669;28;20197;-80
2023/04/29 14:31:24;;;;;;;3.40;2.97;;;18.70;52.60;;;;;;5086665;28;20226;-81
2023/04/29 14:33:50;;;;;;;6.10;3.30;;;18.70;52.50;;;;;;5086038;28;20185;-82
2023/04/29 14:36:16;;;;;;;3.80;3.30;;;18.70;52.40;;;;;;5086475;28;20192;-82
2023/04/29 14:38:42;;;;;;;4.90;3.00;;;18.70;52.30;;;;;;5084172;28;20660;-83
2023/04/29 14:41:07;;;;;;;5.43;3.13;;;18.70;52.20;;;;;;5083338;28;20188;-83
2023/04/29 14:43:34;;;;;;;4.07;2.77;;;18.70;52.10;;;;;;5083603;28;20234;-80
2023/04/29 14:45:59;;;;;;;4.40;3.40;;;18.70;52.00;;;;;;5083144;28;20208;-81
2023/04/29 14:48:25;;;;;;;4.57;3.07;;;18.70;52.00;;;;;;5084584;28;20721;-83
2023/04/29 14:50:50;;;;;;;3.93;3.20;;;18.70;52.00;;;;;;5086668;28;20164;-81
2023/04/29 14:53:16;;;;;;;3.37;2.80;;;18.70;51.90;;;;;;5086747;28;20263;-81
2023/04/29 14:55:42;;;;;;;7.23;3.07;;;18.70;51.90;;;;;;5087495;28;20266;-79
2023/04/29 14:58:09;;;;;;;4.03;3.17;;;18.70;52.00;;;;;;5085504;28;20208;-79
2023/04/29 15:00:34;;;;;;;5.00;3.07;;;18.70;52.20;;;;;;5090868;28;20176;-81
2023/04/29 15:03:00;;;;;;;6.53;3.10;;;18.80;52.50;;;;;;5089897;28;20183;-80
2023/04/29 15:05:26;;;;;;;9.00;3.10;;;18.80;52.30;;;;;;5090251;28;20194;-79
2023/04/29 15:07:52;;;;;;;11.00;3.27;;;18.80;52.10;;;;;;5089907;28;20192;-83
2023/04/29 15:10:18;;;;;;;6.87;3.33;;;18.80;52.50;;;;;;5090897;28;20625;-81
2023/04/29 15:12:43;;;;;;;5.30;3.37;;;18.80;52.20;;;;;;5090537;28;20233;-80
2023/04/29 15:15:09;;;;;;;10.40;3.57;;;18.70;52.30;;;;;;5091925;28;20230;-81
2023/04/29 15:17:35;;;;;;;8.10;3.90;;;18.70;52.40;;;;;;5091209;28;20193;-78
2023/04/29 15:20:00;;;;;;;8.33;3.73;;;18.70;52.50;;;;;;5090441;28;21298;-76
2023/04/29 15:22:26;;;;;;;6.97;3.63;;;18.70;52.60;;;;;;5089264;28;20183;-79
2023/04/29 15:24:51;;;;;;;6.43;3.67;;;18.70;52.60;;;;;;5092017;28;20189;-80
2023/04/29 15:27:17;;;;;;;5.37;3.83;;;18.70;52.60;;;;;;5090383;28;20743;-81
2023/04/29 15:29:43;;;;;;;4.00;3.57;;;18.70;52.70;;;;;;5091158;28;20168;-81
2023/04/29 15:32:09;;;;;;;4.70;3.73;;;18.70;52.70;;;;;;5092063;28;20190;-81
2023/04/29 15:34:34;;;;;;;7.93;3.60;;;18.80;52.80;;;;;;5090534;28;20706;-82
2023/04/29 15:37:01;;;;;;;6.10;3.37;;;18.70;52.70;;;;;;5083136;28;20224;-81
2023/04/29 15:39:26;;;;;;;6.43;3.10;;;18.80;52.70;;;;;;5086880;28;20196;-80
2023/04/29 15:41:52;;;;;;;6.67;3.63;;;18.80;52.70;;;;;;5088051;28;20177;-80
2023/04/29 15:44:18;;;;;;;9.27;4.10;;;18.80;52.40;;;;;;5090876;28;20187;-81
2023/04/29 15:46:43;;;;;;;10.13;4.37;;;18.80;52.40;;;;;;5088431;28;20180;-81
2023/04/29 15:49:09;;;;;;;12.83;3.73;;;18.80;52.20;;;;;;5088078;28;20200;-79
2023/04/29 15:51:35;;;;;;;8.80;3.27;;;18.80;52.20;;;;;;5086136;28;20184;-79
2023/04/29 15:54:00;;;;;;;7.97;3.47;;;18.80;51.90;;;;;;5086795;28;20172;-80
2023/04/29 15:59:48;;;;;;;6.77;3.03;;;18.80;51.60;;;;;;5088990;28;20246;-79
2023/04/29 16:02:14;;;;;;;4.90;2.83;;;18.80;51.70;;;;;;5089873;28;20693;-78
2023/04/29 16:04:39;;;;;;;7.30;3.40;;;18.80;51.60;;;;;;5085081;28;20187;-80
2023/04/29 16:07:05;;;;;;;5.53;3.60;;;18.80;51.50;;;;;;5088349;28;20268;-79
2023/04/29 16:09:34;;;;;;;8.63;4.03;;;18.80;52.00;;;;;;5086195;28;20262;-78
2023/04/29 16:12:01;;;;;;;10.80;4.63;;;18.80;52.90;;;;;;5086207;28;20226;-80
2023/04/29 16:14:27;;;;;;;13.03;5.13;;;18.80;53.50;;;;;;5087469;28;20558;-80
2023/04/29 16:16:53;;;;;;;10.00;4.70;;;18.80;53.80;;;;;;5087429;28;20184;-80
2023/04/29 16:19:19;;;;;;;12.40;4.90;;;18.80;54.20;;;;;;5085515;28;20188;-79
2023/04/29 16:21:44;;;;;;;13.43;5.13;;;18.80;54.40;;;;;;5086902;28;20633;-78
2023/04/29 16:24:13;;;;;;;11.43;5.20;;;18.80;54.50;;;;;;5086658;28;20655;-80
2023/04/29 16:26:40;;;;;;;9.93;4.93;;;18.80;54.50;;;;;;5088424;28;20169;-78
2023/04/29 16:29:06;;;;;;;14.53;4.83;;;18.80;54.80;;;;;;5089025;28;20202;-78
2023/04/29 16:31:32;;;;;;;12.03;5.33;;;18.80;56.10;;;;;;5086342;28;20192;-77
2023/04/29 16:33:58;;;;;;;18.70;4.93;;;18.80;56.00;;;;;;5085638;28;20199;-78
2023/04/29 16:36:24;;;;;;;12.73;4.83;;;18.80;55.90;;;;;;5086278;28;20271;-79
2023/04/29 16:38:50;;;;;;;11.77;5.40;;;18.80;55.70;;;;;;5087151;28;20227;-77
2023/04/29 16:41:16;;;;;;;11.20;4.53;;;18.80;55.20;;;;;;5088243;28;20185;-80
2023/04/29 16:43:42;;;;;;;13.43;4.20;;;18.80;54.50;;;;;;5086359;28;20233;-82
2023/04/29 16:46:08;;;;;;;12.67;5.00;;;18.80;54.60;;;;;;5086375;28;20208;-81
2023/04/29 16:48:34;;;;;;;13.27;4.73;;;18.80;54.40;;;;;;5085765;28;20188;-81
2023/04/29 16:51:00;;;;;;;15.53;4.90;;;18.80;53.80;;;;;;5085156;28;20230;-80
2023/04/29 16:53:25;;;;;;;14.57;5.00;;;18.90;54.20;;;;;;5088137;28;20263;-83
2023/04/29 16:55:51;;;;;;;13.97;4.60;;;18.80;53.50;;;;;;5086031;28;20194;-82
2023/04/29 16:58:18;;;;;;;7.63;4.03;;;18.80;53.50;;;;;;5086279;28;20231;-82
2023/04/29 17:00:44;;;;;;;9.10;4.23;;;18.80;53.50;;;;;;5085974;28;20231;-80
2023/04/29 17:03:10;;;;;;;10.63;4.27;;;18.80;53.60;;;;;;5086170;28;20186;-80
2023/04/29 17:05:36;;;;;;;10.27;4.17;;;18.80;53.50;;;;;;5087051;28;20172;-81
2023/04/29 17:08:03;;;;;;;9.73;4.67;;;18.80;53.40;;;;;;5085626;28;20215;-81
2023/04/29 17:10:28;;;;;;;14.50;4.57;;;18.80;53.40;;;;;;5085534;28;20291;-81
2023/04/29 17:12:54;;;;;;;11.10;4.57;;;18.80;53.50;;;;;;5085968;28;20704;-80
2023/04/29 17:15:20;;;;;;;8.67;4.43;;;18.80;53.50;;;;;;5087387;28;20192;-78
2023/04/29 17:17:45;;;;;;;9.60;4.87;;;18.80;53.50;;;;;;5086125;28;20204;-82
2023/04/29 17:20:12;;;;;;;9.13;4.37;;;18.80;53.20;;;;;;5085317;28;20589;-81
2023/04/29 17:22:38;;;;;;;10.93;4.37;;;18.80;53.10;;;;;;5084799;28;20536;-79
2023/04/29 17:25:06;;;;;;;9.83;3.90;;;18.80;52.80;;;;;;5083428;28;20185;-79
2023/04/29 17:27:32;;;;;;;4.80;3.53;;;18.80;52.50;;;;;;5085382;28;20192;-79
2023/04/29 17:29:58;;;;;;;8.37;3.70;;;18.80;52.30;;;;;;5085201;28;20164;-80
2023/04/29 17:32:27;;;;;;;8.63;3.60;;;18.80;52.20;;;;;;5084536;28;21056;-80
2023/04/29 17:34:57;;;;;;;5.37;3.17;;;18.80;52.10;;;;;;5083657;28;20192;-80
2023/04/29 17:37:26;;;;;;;6.60;3.63;;;18.80;52.00;;;;;;5084965;28;20231;-80
2023/04/29 17:39:51;;;;;;;4.43;3.67;;;18.80;51.90;;;;;;5084043;28;20564;-80
2023/04/29 17:42:19;;;;;;;6.77;3.37;;;18.80;51.80;;;;;;5085320;28;20172;-80
2023/04/29 17:44:48;;;;;;;5.93;3.47;;;18.80;51.70;;;;;;5085339;28;20173;-80
2023/04/29 17:47:16;;;;;;;4.70;3.47;;;18.80;51.80;;;;;;5084254;28;20184;-83
2023/04/29 17:49:44;;;;;;;7.87;3.60;;;18.80;51.90;;;;;;5085578;28;20185;-79
2023/04/29 17:52:10;;;;;;;4.87;3.30;;;18.80;52.00;;;;;;5084091;28;20202;-80
2023/04/29 17:54:40;;;;;;;8.37;3.80;;;18.80;52.00;;;;;;5081706;28;20301;-82
2023/04/29 17:57:06;;;;;;;7.33;3.80;;;18.80;51.90;;;;;;5077461;28;20648;-81
2023/04/29 17:59:31;;;;;;;6.37;3.60;;;18.80;51.80;;;;;;5078857;28;20177;-81
2023/04/29 18:01:57;;;;;;;8.00;4.10;;;18.80;51.80;;;;;;5075210;28;20188;-81
2023/04/29 18:04:24;;;;;;;6.60;3.53;;;18.80;51.90;;;;;;5080288;28;20251;-84
2023/04/29 18:06:50;;;;;;;4.63;3.67;;;18.80;51.80;;;;;;5084248;28;20180;-81
2023/04/29 18:09:16;;;;;;;7.77;3.77;;;18.80;51.90;;;;;;5083511;28;20183;-82
2023/04/29 18:11:42;;;;;;;4.73;3.90;;;18.80;52.00;;;;;;5084440;28;20181;-81
2023/04/29 18:14:08;;;;;;;8.03;4.07;;;18.80;52.10;;;;;;5080658;28;20180;-81
2023/04/29 18:16:34;;;;;;;7.27;5.10;;;18.80;52.00;;;;;;5082986;28;20180;-82
2023/04/29 18:19:00;;;;;;;8.33;5.30;;;18.80;52.00;;;;;;5080306;28;20227;-81
2023/04/29 18:21:27;;;;;;;6.80;5.93;;;18.80;52.40;;;;;;5087272;28;20180;-82
2023/04/29 18:23:54;;;;;;;7.23;5.37;;;18.80;52.50;;;;;;5089733;28;20179;-82
2023/04/29 18:26:20;;;;;;;7.70;6.23;;;18.80;52.40;;;;;;5091280;28;20196;-82
2023/04/29 18:28:46;;;;;;;8.70;5.73;;;18.80;52.40;;;;;;5087584;28;20338;-80
2023/04/29 18:31:16;;;;;;;8.63;5.83;;;18.80;52.40;;;;;;5087450;28;20215;-83
2023/04/29 18:33:42;;;;;;;6.63;5.03;;;18.80;52.50;;;;;;5086515;28;20176;-81
2023/04/29 18:36:08;;;;;;;8.67;5.50;;;18.80;52.60;;;;;;5090527;28;20173;-81
2023/04/29 18:38:34;;;;;;;6.30;4.93;;;18.80;52.60;;;;;;5086252;28;20223;-84
2023/04/29 18:41:00;;;;;;;6.43;5.40;;;18.80;52.70;;;;;;5087451;28;20199;-81
2023/04/29 18:43:27;;;;;;;6.20;4.83;;;18.80;52.70;;;;;;5087050;28;20180;-82
2023/04/29 18:45:57;;;;;;;8.87;5.83;;;18.80;52.80;;;;;;5086202;28;20190;-82
2023/04/29 18:48:22;;;;;;;9.43;5.20;;;18.80;52.70;;;;;;5085679;28;20215;-84
2023/04/29 18:50:53;;;;;;;9.67;5.13;;;18.80;52.70;;;;;;5085754;28;20215;-81
2023/04/29 18:53:19;;;;;;;7.53;5.33;;;18.80;52.70;;;;;;5084285;28;20180;-81
2023/04/29 18:55:45;;;;;;;5.93;5.13;;;18.80;52.60;;;;;;5085449;28;20237;-87
2023/04/29 18:58:11;;;;;;;7.23;5.30;;;18.80;52.50;;;;;;5085009;28;20222;-85
2023/04/29 19:00:36;;;;;;;6.87;5.70;;;18.80;52.30;;;;;;5085519;28;20185;-84
2023/04/29 19:03:03;;;;;;;9.57;6.70;;;18.80;52.30;;;;;;5083201;28;20559;-82
2023/04/29 19:05:28;;;;;;;7.83;6.00;;;18.80;52.40;;;;;;5085490;28;20185;-83
2023/04/29 19:07:54;;;;;;;7.77;5.87;;;18.80;52.50;;;;;;5084519;28;20193;-86
2023/04/29 19:10:19;;;;;;;9.27;6.03;;;18.80;52.40;;;;;;5085375;28;20234;-87
2023/04/29 19:12:45;;;;;;;7.67;6.77;;;18.80;52.50;;;;;;5087502;28;20215;-83
2023/04/29 19:15:12;;;;;;;7.90;7.03;;;18.80;52.40;;;;;;5087058;28;20714;-87
2023/04/29 19:17:38;;;;;;;9.27;7.10;;;18.90;52.40;;;;;;5083162;28;20250;-86
2023/04/29 19:20:05;;;;;;;10.00;8.27;;;18.90;52.30;;;;;;5086406;28;20659;-86
2023/04/29 19:22:30;;;;;;;7.87;7.07;;;18.90;52.40;;;;;;5088472;28;20190;-85
2023/04/29 19:25:15;;;;;;;10.07;7.43;;;18.90;52.50;;;;;;5085752;28;20193;-84
2023/04/29 19:27:43;;;;;;;8.97;7.60;;;18.90;52.50;;;;;;5085917;28;20191;-84